createdAt,value
2022-07-31T00:00:25.840Z,6.38
2022-07-31T00:02:53.191Z,4.22
2022-07-31T00:05:20.557Z,6.30
2022-07-31T00:07:47.931Z,6.22
2022-07-31T00:10:15.297Z,4.05
2022-07-31T00:12:43.191Z,3.97
2022-07-31T00:15:12.068Z,4.53
2022-07-31T00:17:40.542Z,5.82
2022-07-31T00:20:09.779Z,4.25
2022-07-31T00:22:37.588Z,6.30
2022-07-31T00:25:05.827Z,6.88
2022-07-31T00:27:33.179Z,4.50
2022-07-31T00:30:00.598Z,5.13
2022-07-31T00:32:27.912Z,4.93
2022-07-31T00:34:55.268Z,3.67
2022-07-31T00:37:23.083Z,3.47
2022-07-31T00:39:50.542Z,5.15
2022-07-31T00:42:22.884Z,3.72
2022-07-31T00:44:51.750Z,6.88
2022-07-31T00:47:23.884Z,6.47
2022-07-31T00:49:53.498Z,5.82
2022-07-31T00:52:21.176Z,3.80
2022-07-31T00:54:48.892Z,6.20
2022-07-31T00:57:16.461Z,8.00
2022-07-31T00:59:44.375Z,5.45
2022-07-31T01:02:11.905Z,3.63
2022-07-31T01:04:41.666Z,5.75
2022-07-31T01:07:11.780Z,5.55
2022-07-31T01:09:39.236Z,3.85
2022-07-31T01:12:21.521Z,5.75
2022-07-31T01:14:53.166Z,7.95
2022-07-31T01:17:23.148Z,4.32
2022-07-31T01:19:52.282Z,4.50
2022-07-31T01:22:59.042Z,5.00
2022-07-31T01:26:11.775Z,7.13
2022-07-31T01:28:46.865Z,4.63
2022-07-31T01:31:26.568Z,5.03
2022-07-31T01:34:05.511Z,6.57
2022-07-31T01:36:36.763Z,8.55
2022-07-31T01:39:05.148Z,6.40
2022-07-31T01:41:40.615Z,6.13
2022-07-31T01:44:13.772Z,5.93
2022-07-31T01:46:44.770Z,6.93
2022-07-31T01:49:14.687Z,6.50
2022-07-31T01:51:45.005Z,4.97
2022-07-31T01:54:14.094Z,4.65
2022-07-31T01:56:42.147Z,5.47
2022-07-31T01:59:19.928Z,7.05
2022-07-31T02:02:10.571Z,5.38
2022-07-31T02:04:39.699Z,6.78
2022-07-31T02:07:08.311Z,4.90
2022-07-31T02:09:37.700Z,6.93
2022-07-31T02:12:20.423Z,3.42
2022-07-31T02:15:05.557Z,8.73
2022-07-31T02:17:34.604Z,4.88
2022-07-31T02:20:27.039Z,4.93
2022-07-31T02:22:56.904Z,5.80
2022-07-31T02:25:24.927Z,8.75
2022-07-31T02:27:58.771Z,9.52
2022-07-31T02:30:39.472Z,10.20
2022-07-31T02:33:13.823Z,7.38
2022-07-31T02:35:45.572Z,5.75
2022-07-31T02:38:23.316Z,4.88
2022-07-31T02:40:55.445Z,6.70
2022-07-31T02:43:23.909Z,4.80
2022-07-31T02:45:51.786Z,7.88
2022-07-31T02:48:19.587Z,7.88
2022-07-31T02:50:49.935Z,6.07
2022-07-31T02:53:17.524Z,7.75
2022-07-31T02:55:46.442Z,4.68
2022-07-31T02:58:14.421Z,5.90
2022-07-31T03:00:42.045Z,6.60
2022-07-31T03:03:09.907Z,11.38
2022-07-31T03:05:37.307Z,5.68
2022-07-31T03:08:04.918Z,5.90
2022-07-31T03:10:35.166Z,5.63
2022-07-31T03:13:06.651Z,12.80
2022-07-31T03:15:35.186Z,9.25
2022-07-31T03:18:11.152Z,4.30
2022-07-31T03:20:43.204Z,6.57
2022-07-31T03:23:13.324Z,12.30
2022-07-31T03:25:52.102Z,7.80
2022-07-31T03:28:20.884Z,5.00
2022-07-31T03:30:51.886Z,5.20
2022-07-31T03:33:25.193Z,6.15
2022-07-31T03:35:53.370Z,7.90
2022-07-31T03:38:39.314Z,7.65
2022-07-31T03:41:09.936Z,6.85
2022-07-31T03:43:46.914Z,8.52
2022-07-31T03:46:18.565Z,4.90
2022-07-31T03:48:47.861Z,5.88
2022-07-31T03:51:16.231Z,5.10
2022-07-31T03:53:43.921Z,8.75
2022-07-31T03:56:21.869Z,12.52
2022-07-31T03:58:52.498Z,7.40
2022-07-31T04:01:21.875Z,5.10
2022-07-31T04:04:00.724Z,9.02
2022-07-31T04:06:37.398Z,6.43
2022-07-31T04:09:07.916Z,6.68
2022-07-31T04:11:46.643Z,8.18
2022-07-31T04:14:13.961Z,6.88
2022-07-31T04:16:41.728Z,6.15
2022-07-31T04:19:09.123Z,10.20
2022-07-31T04:21:36.805Z,7.07
2022-07-31T04:24:06.158Z,5.60
2022-07-31T04:26:58.235Z,7.20
2022-07-31T04:29:32.422Z,7.10
2022-07-31T04:32:00.046Z,5.88
2022-07-31T04:34:33.865Z,9.55
2022-07-31T04:37:01.475Z,7.60
2022-07-31T04:39:28.967Z,8.45
2022-07-31T04:41:56.862Z,8.02
2022-07-31T04:44:24.298Z,7.78
2022-07-31T04:47:02.359Z,6.95
2022-07-31T04:49:33.298Z,9.98
2022-07-31T04:52:02.667Z,6.55
2022-07-31T04:54:30.243Z,6.43
2022-07-31T04:56:59.508Z,6.63
2022-07-31T05:00:00.062Z,7.32
2022-07-31T05:02:15.193Z,10.13
2022-07-31T05:04:42.601Z,6.88
2022-07-31T05:07:09.925Z,9.73
2022-07-31T05:09:37.438Z,9.20
2022-07-31T05:12:08.253Z,10.68
2022-07-31T05:14:35.718Z,6.75
2022-07-31T05:17:03.279Z,7.57
2022-07-31T05:19:48.258Z,6.82
2022-07-31T05:22:32.014Z,6.85
2022-07-31T05:25:18.035Z,6.25
2022-07-31T05:27:45.476Z,8.63
2022-07-31T05:30:17.595Z,7.35
2022-07-31T05:32:58.458Z,12.02
2022-07-31T05:35:25.923Z,6.20
2022-07-31T05:37:53.433Z,6.68
2022-07-31T05:40:31.382Z,7.20
2022-07-31T05:43:17.203Z,5.43
2022-07-31T05:46:08.299Z,7.38
2022-07-31T05:48:35.786Z,5.65
2022-07-31T05:51:05.626Z,8.25
2022-07-31T05:53:33.222Z,5.10
2022-07-31T05:56:29.836Z,8.63
2022-07-31T05:58:59.872Z,3.40
2022-07-31T06:01:27.292Z,4.35
2022-07-31T06:03:54.794Z,4.97
2022-07-31T06:06:25.923Z,11.00
2022-07-31T06:08:53.452Z,4.30
2022-07-31T06:11:21.327Z,6.28
2022-07-31T06:13:48.687Z,4.80
2022-07-31T06:16:24.156Z,4.68
2022-07-31T06:18:52.429Z,5.75
2022-07-31T06:23:46.615Z,3.33
2022-07-31T06:26:28.543Z,4.00
2022-07-31T06:28:56.831Z,3.42
2022-07-31T06:31:24.300Z,3.83
2022-07-31T06:33:55.486Z,3.50
2022-07-31T06:36:26.794Z,3.25
2022-07-31T06:38:58.212Z,3.65
2022-07-31T06:41:47.106Z,5.47
2022-07-31T06:44:30.913Z,3.40
2022-07-31T06:47:23.599Z,3.10
2022-07-31T06:49:51.294Z,4.78
2022-07-31T06:52:19.137Z,5.97
2022-07-31T06:54:47.814Z,3.55
2022-07-31T06:57:15.751Z,3.17
2022-07-31T06:59:43.545Z,5.25
2022-07-31T07:02:11.743Z,4.53
2022-07-31T07:05:04.466Z,4.68
2022-07-31T07:07:31.894Z,3.63
2022-07-31T07:10:01.484Z,5.57
2022-07-31T07:12:51.955Z,3.85
2022-07-31T07:15:21.664Z,3.50
2022-07-31T07:17:49.005Z,4.20
2022-07-31T07:20:21.937Z,3.92
2022-07-31T07:22:49.280Z,3.25
2022-07-31T07:25:32.430Z,3.85
2022-07-31T07:28:02.133Z,5.40
2022-07-31T07:30:30.166Z,3.30
2022-07-31T07:33:00.555Z,5.68
2022-07-31T07:35:33.839Z,2.97
2022-07-31T07:38:05.493Z,4.13
2022-07-31T07:40:33.446Z,3.45
2022-07-31T07:43:03.150Z,3.03
2022-07-31T07:45:31.579Z,3.33
2022-07-31T07:48:06.519Z,6.35
2022-07-31T07:50:56.230Z,5.15
2022-07-31T07:53:29.225Z,3.10
2022-07-31T07:56:19.507Z,3.03
2022-07-31T07:59:07.087Z,4.05
2022-07-31T08:02:20.569Z,6.90
2022-07-31T08:04:48.595Z,2.65
2022-07-31T08:07:16.013Z,3.35
2022-07-31T08:09:43.638Z,3.17
2022-07-31T08:12:29.201Z,7.32
2022-07-31T08:15:16.850Z,3.47
2022-07-31T08:18:02.712Z,4.47
2022-07-31T08:20:30.106Z,2.55
2022-07-31T08:22:57.473Z,3.08
2022-07-31T08:25:24.941Z,3.67
2022-07-31T08:30:30.893Z,2.90
2022-07-31T08:32:59.345Z,2.85
2022-07-31T08:35:51.340Z,3.15
2022-07-31T08:38:21.109Z,3.38
2022-07-31T08:41:08.694Z,3.20
2022-07-31T08:44:01.575Z,3.20
2022-07-31T08:46:25.462Z,2.78
2022-07-31T08:48:57.525Z,2.53
2022-07-31T08:51:25.715Z,6.30
2022-07-31T08:54:11.773Z,3.40
2022-07-31T08:56:40.425Z,3.40
2022-07-31T08:59:09.023Z,3.17
2022-07-31T09:01:37.384Z,4.28
2022-07-31T09:04:05.071Z,2.40
2022-07-31T09:06:32.539Z,5.78
2022-07-31T09:09:00.176Z,3.58
2022-07-31T09:11:27.655Z,2.10
2022-07-31T09:14:14.185Z,2.60
2022-07-31T09:16:50.360Z,4.75
2022-07-31T09:19:52.786Z,2.85
2022-07-31T09:22:24.741Z,2.97
2022-07-31T09:24:53.300Z,2.13
2022-07-31T09:27:27.558Z,3.35
2022-07-31T09:29:56.614Z,2.25
2022-07-31T09:32:37.438Z,3.20
2022-07-31T09:35:15.949Z,2.80
2022-07-31T09:37:47.592Z,3.92
2022-07-31T09:40:42.961Z,1.85
2022-07-31T09:43:31.487Z,4.68
2022-07-31T09:46:01.426Z,2.58
2022-07-31T09:48:29.531Z,2.42
2022-07-31T09:50:59.646Z,3.22
2022-07-31T09:53:43.650Z,2.58
2022-07-31T09:56:35.279Z,1.80
2022-07-31T09:59:03.718Z,3.20
2022-07-31T10:01:33.433Z,3.15
2022-07-31T10:04:01.506Z,1.60
2022-07-31T10:06:31.560Z,2.70
2022-07-31T10:09:02.190Z,3.08
2022-07-31T10:11:54.041Z,1.70
2022-07-31T10:14:28.197Z,1.73
2022-07-31T10:17:00.108Z,2.73
2022-07-31T10:19:43.978Z,2.00
2022-07-31T10:23:08.540Z,2.70
2022-07-31T10:25:41.907Z,1.50
2022-07-31T10:28:22.430Z,2.75
2022-07-31T10:30:50.140Z,1.67
2022-07-31T10:33:42.430Z,4.53
2022-07-31T10:36:32.623Z,6.40
2022-07-31T10:39:44.225Z,3.50
2022-07-31T10:42:49.196Z,5.07
2022-07-31T10:45:18.192Z,2.35
2022-07-31T10:48:11.546Z,2.17
2022-07-31T10:51:05.105Z,3.50
2022-07-31T10:53:58.675Z,2.97
2022-07-31T10:56:58.284Z,2.42
2022-07-31T11:00:11.788Z,2.63
2022-07-31T11:03:19.617Z,2.30
2022-07-31T11:06:10.255Z,1.88
2022-07-31T11:09:09.898Z,2.97
2022-07-31T11:11:54.171Z,2.05
2022-07-31T11:14:40.330Z,2.13
2022-07-31T11:18:23.181Z,3.45
2022-07-31T11:20:32.010Z,2.25
2022-07-31T11:23:09.977Z,2.88
2022-07-31T11:25:38.445Z,3.95
2022-07-31T11:28:23.490Z,3.10
2022-07-31T11:30:58.088Z,3.97
2022-07-31T11:33:51.411Z,3.28
2022-07-31T11:36:20.811Z,2.58
2022-07-31T11:38:50.933Z,2.42
2022-07-31T11:41:22.255Z,3.28
2022-07-31T11:43:52.322Z,4.07
2022-07-31T11:46:28.109Z,2.80
2022-07-31T11:48:57.089Z,3.10
2022-07-31T11:51:26.159Z,2.97
2022-07-31T11:53:56.743Z,2.65
2022-07-31T11:56:26.649Z,4.13
2022-07-31T11:58:56.602Z,3.75
2022-07-31T12:01:29.258Z,3.25
2022-07-31T12:04:08.421Z,3.17
2022-07-31T12:06:37.858Z,3.45
2022-07-31T12:09:05.347Z,2.88
2022-07-31T12:11:32.825Z,3.58
2022-07-31T12:14:00.119Z,4.40
2022-07-31T12:16:27.537Z,2.55
2022-07-31T12:19:01.269Z,2.50
2022-07-31T12:21:33.639Z,5.28
2022-07-31T12:24:01.516Z,2.85
2022-07-31T12:26:32.264Z,3.10
2022-07-31T12:29:07.581Z,4.90
2022-07-31T12:31:49.091Z,3.25
2022-07-31T12:34:30.057Z,3.90
2022-07-31T12:37:04.509Z,3.17
2022-07-31T12:39:47.557Z,2.85
2022-07-31T12:42:30.501Z,6.97
2022-07-31T12:45:20.094Z,3.00
2022-07-31T12:47:51.567Z,4.95
2022-07-31T12:50:24.746Z,4.47
2022-07-31T12:52:52.625Z,4.45
2022-07-31T12:55:20.520Z,2.85
2022-07-31T12:57:50.942Z,5.30
2022-07-31T13:00:22.758Z,5.20
2022-07-31T13:02:52.004Z,4.22
2022-07-31T13:05:19.863Z,3.17
2022-07-31T13:07:50.219Z,2.88
2022-07-31T13:10:23.959Z,2.50
2022-07-31T13:12:53.018Z,3.00
2022-07-31T13:15:23.413Z,4.32
2022-07-31T13:17:51.270Z,2.83
2022-07-31T13:20:19.626Z,3.90
2022-07-31T13:22:46.989Z,2.72
2022-07-31T13:25:14.596Z,2.65
2022-07-31T13:27:42.269Z,5.65
2022-07-31T13:30:10.296Z,4.07
2022-07-31T13:32:37.663Z,2.33
2022-07-31T13:35:27.235Z,2.17
2022-07-31T13:37:53.983Z,2.55
2022-07-31T13:40:44.516Z,3.63
2022-07-31T13:43:15.100Z,3.50
2022-07-31T13:45:42.502Z,1.95
2022-07-31T13:48:10.436Z,5.50
2022-07-31T13:50:39.779Z,2.55
2022-07-31T13:53:08.134Z,2.40
2022-07-31T13:55:36.265Z,2.40
2022-07-31T13:58:03.926Z,2.88
2022-07-31T14:00:32.089Z,3.78
2022-07-31T14:02:59.478Z,2.90
2022-07-31T14:05:27.616Z,2.10
2022-07-31T14:07:56.126Z,4.32
2022-07-31T14:10:24.001Z,2.40
2022-07-31T14:12:53.459Z,4.15
2022-07-31T14:15:20.994Z,2.60
2022-07-31T14:17:51.151Z,2.58
2022-07-31T14:20:18.557Z,4.65
2022-07-31T14:22:45.963Z,2.40
2022-07-31T14:25:13.747Z,4.63
2022-07-31T14:27:41.094Z,2.95
2022-07-31T14:30:09.558Z,2.92
2022-07-31T14:32:39.572Z,2.72
2022-07-31T14:35:08.714Z,3.40
2022-07-31T14:37:37.090Z,3.83
2022-07-31T14:40:05.759Z,4.22
2022-07-31T14:42:33.228Z,3.03
2022-07-31T14:45:03.103Z,2.63
2022-07-31T14:47:34.793Z,3.65
2022-07-31T14:50:08.904Z,3.25
2022-07-31T14:52:38.465Z,3.22
2022-07-31T14:55:06.326Z,3.17
2022-07-31T14:57:33.876Z,2.95
2022-07-31T15:00:01.550Z,6.18
2022-07-31T15:02:29.087Z,3.88
2022-07-31T15:04:56.505Z,3.53
2022-07-31T15:07:45.863Z,2.80
2022-07-31T15:10:12.074Z,2.65
2022-07-31T15:12:40.127Z,2.03
2022-07-31T15:15:08.427Z,1.88
2022-07-31T15:17:36.005Z,2.40
2022-07-31T15:20:04.467Z,2.55
2022-07-31T15:22:31.871Z,3.58
2022-07-31T15:24:59.379Z,2.67
2022-07-31T15:27:26.969Z,5.32
2022-07-31T15:30:04.939Z,2.88
2022-07-31T15:32:39.260Z,4.22
2022-07-31T15:35:09.085Z,2.53
2022-07-31T15:37:37.744Z,3.38
2022-07-31T15:40:07.971Z,2.83
2022-07-31T15:42:38.248Z,2.90
2022-07-31T15:45:08.528Z,2.90
2022-07-31T15:47:36.325Z,2.88
2022-07-31T15:50:04.871Z,4.10
2022-07-31T15:52:32.211Z,4.50
2022-07-31T15:54:59.827Z,26.25
2022-07-31T15:57:27.357Z,5.80
2022-07-31T15:59:55.188Z,2.58
2022-07-31T16:02:23.796Z,2.72
2022-07-31T16:04:54.953Z,2.97
2022-07-31T16:08:29.336Z,6.18
2022-07-31T16:10:17.657Z,3.03
2022-07-31T16:12:46.240Z,4.32
2022-07-31T16:15:14.719Z,2.80
2022-07-31T16:17:42.338Z,2.30
2022-07-31T16:20:12.472Z,2.42
2022-07-31T16:22:41.444Z,3.30
2022-07-31T16:25:10.319Z,4.10
2022-07-31T16:27:37.978Z,5.25
2022-07-31T16:30:07.106Z,4.85
2022-07-31T16:32:34.737Z,3.55
2022-07-31T16:35:02.450Z,2.28
2022-07-31T16:37:50.904Z,3.55
2022-07-31T16:40:29.684Z,2.25
2022-07-31T16:43:49.523Z,1.52
2022-07-31T16:45:53.077Z,1.50
2022-07-31T16:48:20.764Z,3.50
2022-07-31T16:50:53.677Z,1.75
2022-07-31T16:54:11.609Z,1.43
2022-07-31T16:56:15.684Z,1.73
2022-07-31T16:58:44.077Z,1.27
2022-07-31T17:01:58.120Z,3.47
2022-07-31T17:04:03.545Z,1.65
2022-07-31T17:06:38.954Z,3.22
2022-07-31T17:09:16.499Z,2.25
2022-07-31T17:11:47.117Z,1.58
2022-07-31T17:14:15.586Z,1.25
2022-07-31T17:16:47.495Z,1.85
2022-07-31T17:19:41.436Z,3.38
2022-07-31T17:22:08.403Z,2.50
2022-07-31T17:24:39.514Z,2.75
2022-07-31T17:27:08.562Z,5.28
2022-07-31T17:29:38.027Z,3.50
2022-07-31T17:32:05.708Z,4.45
2022-07-31T17:34:35.224Z,3.25
2022-07-31T17:37:02.895Z,5.18
2022-07-31T17:39:31.154Z,3.05
2022-07-31T17:41:59.461Z,2.50
2022-07-31T17:44:27.297Z,3.60
2022-07-31T17:46:55.026Z,3.72
2022-07-31T17:49:22.491Z,4.28
2022-07-31T17:51:59.457Z,4.25
2022-07-31T17:54:32.429Z,4.30
2022-07-31T17:57:00.248Z,6.60
2022-07-31T17:59:28.539Z,4.85
2022-07-31T18:02:00.337Z,5.13
2022-07-31T18:04:32.501Z,5.45
2022-07-31T18:07:01.631Z,5.57
2022-07-31T18:09:29.074Z,7.85
2022-07-31T18:11:57.331Z,7.25
2022-07-31T18:14:25.339Z,12.52
2022-07-31T18:16:53.135Z,6.07
2022-07-31T18:19:21.886Z,6.95
2022-07-31T18:21:50.510Z,7.68
2022-07-31T18:24:18.207Z,8.57
2022-07-31T18:26:45.900Z,7.60
2022-07-31T18:29:13.347Z,8.93
2022-07-31T18:31:40.758Z,7.53
2022-07-31T18:34:08.311Z,7.15
2022-07-31T18:36:35.800Z,8.10
2022-07-31T18:39:04.231Z,8.18
2022-07-31T18:41:34.054Z,10.00
2022-07-31T18:44:01.937Z,9.25
2022-07-31T18:46:32.028Z,9.32
2022-07-31T18:49:00.459Z,10.43
2022-07-31T18:51:29.298Z,9.70
2022-07-31T18:53:57.806Z,10.38
2022-07-31T18:56:25.973Z,10.88
2022-07-31T18:58:54.281Z,11.30
2022-07-31T19:01:23.344Z,10.82
2022-07-31T19:03:51.541Z,10.60
2022-07-31T19:06:19.524Z,12.57
2022-07-31T19:08:49.322Z,11.77
2022-07-31T19:11:16.946Z,11.55
2022-07-31T19:13:44.642Z,11.65
2022-07-31T19:16:12.156Z,13.32
2022-07-31T19:18:40.320Z,13.32
2022-07-31T19:21:22.618Z,13.25
2022-07-31T19:23:55.755Z,13.00
2022-07-31T19:26:23.161Z,14.07
2022-07-31T19:28:51.195Z,12.98
2022-07-31T19:31:24.232Z,12.65
2022-07-31T19:33:54.022Z,8.90
2022-07-31T19:36:21.465Z,8.40
2022-07-31T19:38:48.831Z,7.18
2022-07-31T19:41:16.293Z,11.30
2022-07-31T19:43:46.808Z,9.88
2022-07-31T19:46:14.301Z,7.30
2022-07-31T19:48:43.226Z,8.63
2022-07-31T19:51:12.207Z,6.00
2022-07-31T19:53:39.658Z,5.70
2022-07-31T19:56:07.694Z,10.77
2022-07-31T19:58:36.563Z,8.05
2022-07-31T20:01:06.126Z,7.70
2022-07-31T20:03:34.422Z,9.27
2022-07-31T20:06:02.591Z,11.02
2022-07-31T20:08:33.381Z,7.43
2022-07-31T20:11:04.001Z,5.90
2022-07-31T20:13:32.921Z,5.97
2022-07-31T20:16:00.845Z,7.78
2022-07-31T20:18:29.261Z,7.90
2022-07-31T20:20:59.966Z,7.38
2022-07-31T20:23:28.358Z,7.22
2022-07-31T20:25:55.858Z,5.32
2022-07-31T20:28:23.384Z,9.07
2022-07-31T20:30:50.961Z,6.80
2022-07-31T20:33:18.686Z,7.68
2022-07-31T20:35:49.378Z,6.60
2022-07-31T20:38:19.277Z,6.90
2022-07-31T20:40:53.485Z,6.60
2022-07-31T20:45:53.782Z,7.90
2022-07-31T20:48:24.173Z,7.45
2022-07-31T20:50:52.844Z,5.60
2022-07-31T20:53:21.593Z,5.45
2022-07-31T20:55:50.286Z,5.97
2022-07-31T20:58:21.941Z,6.25
2022-07-31T21:00:51.000Z,6.43
2022-07-31T21:03:19.361Z,6.68
2022-07-31T21:05:47.920Z,5.57
2022-07-31T21:08:15.726Z,7.07
2022-07-31T21:10:43.353Z,8.65
2022-07-31T21:13:10.879Z,6.47
2022-07-31T21:15:42.252Z,6.47
2022-07-31T21:18:16.427Z,6.50
2022-07-31T21:20:50.861Z,5.63
2022-07-31T21:23:22.348Z,5.97
2022-07-31T21:25:51.179Z,6.22
2022-07-31T21:28:18.897Z,7.05
2022-07-31T21:30:46.470Z,7.13
2022-07-31T21:33:14.074Z,7.63
2022-07-31T21:35:42.023Z,6.63
2022-07-31T21:38:12.613Z,5.90
2022-07-31T21:40:40.734Z,7.00
2022-07-31T21:43:09.248Z,5.78
2022-07-31T21:45:47.746Z,4.97
2022-07-31T21:48:25.599Z,6.70
2022-07-31T21:50:54.711Z,6.13
2022-07-31T21:53:23.211Z,5.55
2022-07-31T21:55:50.896Z,7.78
2022-07-31T21:58:18.316Z,7.20
2022-07-31T22:00:45.857Z,5.85
2022-07-31T22:03:13.391Z,10.68
2022-07-31T22:05:59.092Z,5.95
2022-07-31T22:08:26.474Z,8.63
2022-07-31T22:10:54.509Z,6.60
2022-07-31T22:13:21.998Z,6.55
2022-07-31T22:15:58.906Z,6.97
2022-07-31T22:18:30.762Z,10.30
2022-07-31T22:20:59.187Z,6.45
2022-07-31T22:23:27.620Z,8.32
2022-07-31T22:25:55.895Z,7.07
2022-07-31T22:28:24.676Z,6.07
2022-07-31T22:30:52.760Z,10.30
2022-07-31T22:33:20.699Z,7.57
2022-07-31T22:35:59.004Z,8.48
2022-07-31T22:38:29.595Z,8.32
2022-07-31T22:41:00.882Z,6.70
2022-07-31T22:44:13.820Z,8.80
2022-07-31T22:46:16.696Z,7.15
2022-07-31T22:48:45.270Z,6.97
2022-07-31T22:51:14.308Z,9.27
2022-07-31T22:53:43.899Z,6.70
2022-07-31T22:56:11.401Z,7.63
2022-07-31T22:58:38.897Z,6.82
2022-07-31T23:01:06.341Z,6.95
2022-07-31T23:03:33.725Z,6.65
2022-07-31T23:06:02.607Z,6.35
2022-07-31T23:08:55.019Z,9.40
2022-07-31T23:11:27.153Z,8.48
2022-07-31T23:13:54.566Z,7.13
2022-07-31T23:16:22.123Z,6.97
2022-07-31T23:18:50.352Z,6.85
2022-07-31T23:21:18.803Z,7.20
2022-07-31T23:23:48.841Z,7.70
2022-07-31T23:26:21.226Z,9.98
2022-07-31T23:28:48.731Z,8.18
2022-07-31T23:31:16.807Z,7.55
2022-07-31T23:33:44.879Z,7.68
2022-07-31T23:36:12.781Z,8.30
2022-07-31T23:38:40.597Z,7.97
2022-07-31T23:41:08.565Z,9.52
2022-07-31T23:43:36.324Z,7.90
2022-07-31T23:46:04.841Z,8.52
2022-07-31T23:48:34.165Z,7.95
2022-07-31T23:51:01.707Z,7.40
2022-07-31T23:53:29.205Z,8.48
2022-07-31T23:55:56.646Z,7.70
2022-07-31T23:58:23.977Z,8.65
